Saturday, August 08, 2020 (09:28 UTC)
OPMET DATA
 
Terminal Aerodrome Forecast (TAF) and METAR
TAFs are issued by Aviation Meteorological Office, for Abu Dhabi (OMAA), Bateen (OMAD), Al Ain (OMAL), Dubai (OMDB), Al Maktoum (OMDW), Sharjah (OMSJ), Ras Al Khaimah (OMRK) and Fujairah (OMFJ) airports. These TAFs are issued every 6 hours and are valid for a 30 hour period. METARs (Aviation Routine Weather Reports) are updated hourly.
Show ICAO codes
Select OPMET type:        SEARCH   PRINT
Aviation Meteorology - National Center of Meteorology (NCM)
Telephone: +971 2 5757346 / 5053676
Email: metweb@adiamet.gov.ae
Website: www.avmet.ae
METAR OMAA 080900Z 29012KT CAVOK 41/17 Q0994 NOSIG=
METAR OMAD 080900Z 27011KT 240V300 CAVOK 39/18 Q0994 NOSIG=
METAR OMAL 080900Z 20012KT CAVOK 41/15 Q0996 NOSIG=
METAR OMDB 080900Z 30012KT 250V320 CAVOK 38/27 Q0994 NOSIG=
METAR OMDW 080900Z 27011KT CAVOK 41/22 Q0995 NOSIG=
METAR OMFJ 080900Z 09009KT 060V130 5000 HZ SCT018 35/29 Q0995 A2938=
METAR OMSJ 080900Z 26010KT 230V290 CAVOK 39/25 Q0994 NOSIG=
METAR OMRK 080900Z 28010KT CAVOK 41/26 Q0994 A2936=
METAR OTBD 080900Z AUTO 28004KT 200V350 CAVOK 47/12 Q0994 NOSIG=
METAR OTHH 080900Z AUTO 32007KT 290V350 CAVOK 45/08 Q0994 NOSIG=
METAR OBBI 080900Z 30011KT CAVOK 43/08 Q0994 NOSIG=
METAR OEDF 080900Z 31011KT CAVOK 48/05 Q0993 NOSIG=
METAR OEDR 080900Z 33010KT CAVOK 47/07 Q0992 NOSIG=
METAR OEJN 080900Z 28008KT 9999 FEW035 37/21 Q1005 NOSIG=
METAR OEMA 080900Z 31012KT 9999 FEW045 39/05 Q1008 NOSIG=
METAR OEPA 080900Z 36010KT CAVOK 43/09 Q0999 NOSIG=
METAR OERF 080900Z 33016KT CAVOK 43/01 Q1001=
METAR OERK 080900Z 34009KT CAVOK 43/06 Q1002 NOSIG=
METAR OERR 080900Z 33013KT CAVOK 41/M02 Q1003=
METAR OERY 080900Z 33010KT CAVOK 41/03 Q1002=
METAR OESH 080900Z 31009KT CAVOK 40/05 Q1004 NOSIG=
METAR OETB 080900Z 33008KT CAVOK 36/01 Q1010 NOSIG=
METAR OETF 080900Z 35017KT CAVOK 30/02 Q1016 NOSIG=
METAR OETR 080900Z 32020KT CAVOK 37/08 Q1008=
METAR OEWD 080900Z 24004KT CAVOK 40/13 Q1002 NOSIG=
METAR OEWJ 080900Z 24008KT CAVOK 33/28 Q1004 NOSIG=
METAR OEYN 080900Z 20010KT 9999 FEW040 34/25 Q1003 NOSIG=
METAR OKBK 080900Z 34016KT 7000 SKC 47/07 Q0994 NOSIG=
METAR OOMS 080850Z VRB02KT 7000 FEW025 BKN250 34/29 Q0994 NOSIG=
METAR OOSA 080850Z 14004KT 8000 SCT010 OVC020 27/24 Q1000 NOSIG=
METAR OYSN NIL=
METAR OYAA NIL=
 
Saturday, August 08, 2020 (09:28 UTC)